Flag for United Kingdom

Past Weather in 57°08'31.6"N, 2°05'09.5"W, United Kingdom — Yesterday and Last 2 Weeks

Currently: 52 °F. Fog. (Weather station: Aberdeen / Dyce, United Kingdom). See more current weather

Past Weather in 57°08'31.6"N, 2°05'09.5"W — Graph

°F

57°08'31.6"N, 2°05'09.5"W Temperature Yesterday

Maximum temperature yesterday: 55 °F (at 11:50 am)
Minimum temperature yesterday: 37 °F (at 4:20 am)
Average temperature yesterday: 49 °F

High & Low Weather Summary for the Past Weeks

 TemperatureHumidityPressure
High73 °F (May 11, 12:50 pm)100% (May 10, 5:20 am)30.33 "Hg (May 10, 5:20 am)
Low37 °F (May 21, 4:20 am)41% (May 20, 11:50 am)29.62 "Hg (May 13, 4:50 pm)
Average55 °F84%29.99 "Hg
* Reported May 7 5:20 am — May 22 5:20 am, 57°08'31.6"N, 2°05'09.5"W. Weather by CustomWeather, © 2024

Note: Actual official high and low records may vary slightly from our data, if they occured in-between our weather recording intervals... More about our weather records

57°08'31.6"N, 2°05'09.5"W Weather History for the Previous 24 Hours

Scroll right to see more
 ConditionsComfort  
Time TempWeatherWind HumidityBarometerVisibility
5:20 am
Wed, May 22
52 °FFog.3 mph100%29.86 "Hg1 mi
4:50 am52 °FFog.2 mph94%29.86 "Hg2 mi
4:20 am52 °FFog.2 mph100%29.86 "Hg2 mi
3:20 am52 °FFog.3 mph100%29.86 "Hg2 mi
2:50 am52 °FFog.3 mph100%29.86 "Hg1 mi
2:20 am52 °FFog.5 mph100%29.89 "Hg1 mi
1:50 am52 °FFog.6 mph100%29.89 "Hg1 mi
12:50 am54 °FFog.6 mph94%29.89 "Hg1 mi
12:20 am54 °FFog.5 mph94%29.89 "Hg1 mi
11:50 pm
Tue, May 21
54 °FFog.7 mph94%29.89 "Hg1 mi
11:20 pm54 °FFog.7 mph100%29.89 "Hg2 mi
10:50 pm54 °FFog.8 mph100%29.89 "Hg1 mi
10:20 pm54 °FFog.6 mph100%29.89 "Hg1 mi
9:20 pm54 °FFog.5 mph100%29.89 "Hg1 mi
8:50 pm54 °FFog.6 mph100%29.89 "Hg1 mi
8:20 pm54 °FFog.7 mph100%29.89 "Hg2 mi
7:50 pm55 °FFog.7 mph94%29.89 "Hg1 mi
7:20 pm55 °FFog.7 mph94%29.89 "Hg1 mi
6:50 pm55 °FFog.7 mph94%29.89 "Hg1 mi
6:20 pm55 °FFog.6 mph94%29.89 "Hg1 mi
5:50 pm55 °FFog.7 mph94%29.89 "Hg1 mi
5:20 pm55 °FFog.8 mph94%29.89 "Hg2 mi
4:50 pm55 °FPartly sunny.6 mph94%29.89 "Hg4 mi
4:20 pm55 °FPartly sunny.8 mph88%29.92 "Hg4 mi
3:50 pm55 °FPartly sunny.6 mph88%29.92 "Hg5 mi
3:20 pm54 °FPartly sunny.6 mph94%29.92 "Hg4 mi
2:20 pm55 °FLow clouds.8 mph82%29.92 "HgN/A
1:50 pm54 °FPartly sunny.6 mph88%29.92 "Hg5 mi
12:50 pm54 °FPartly sunny.6 mph88%29.95 "Hg5 mi
12:20 pm55 °FPartly sunny.8 mph82%29.95 "Hg5 mi
11:50 am55 °FPartly sunny.5 mph82%29.95 "Hg5 mi
11:20 am52 °FPartly sunny.5 mph94%29.95 "Hg4 mi
10:50 am52 °FFog.5 mph94%29.95 "Hg2 mi
10:20 am50 °FFog.3 mph94%29.95 "Hg3 mi
9:50 am50 °FFog.2 mph94%29.95 "Hg3 mi
9:20 am48 °FFog.2 mph100%29.95 "Hg2 mi
8:50 am48 °FFog.3 mph100%29.95 "Hg1 mi
8:20 am48 °FCool.3 mph94%29.98 "Hg2 mi
7:50 am46 °FSleet. Cloudy.2 mph100%29.98 "Hg2 mi
7:20 am45 °FFog.1 mph93%29.98 "Hg0 mi
6:50 am43 °FFog.5 mph93%29.95 "Hg1 mi
6:20 am41 °FFog.2 mph100%29.95 "Hg0 mi
Weather by CustomWeather, © 2024

See weather overview